Time;durP1;ratioP1;P1;durP2;ratioP2;P2;SDS_P1;SDS_P2;PMS_P1;PMS_P2;Temp;Humidity;BMP_temperature;BMP_pressure;BME280_temperature;BME280_humidity;BME280_pressure;Samples;Min_cycle;Max_cycle;Signal;HPM_P1;HPM_P2
2024/01/13 00:53:17;;;;;;;5.80;3.28;;;;;;;;;;5903106;24;20028;-87
2024/01/13 00:55:45;;;;;;;5.47;3.08;;;;;;;;;;5883992;24;20040;-87
2024/01/13 00:58:13;;;;;;;7.00;3.92;;;;;;;;;;5888339;24;20033;-87
2024/01/13 01:00:40;;;;;;;5.38;3.30;;;;;;;;;;5885030;24;20051;-87
2024/01/13 01:03:07;;;;;;;5.53;3.20;;;;;;;;;;5892786;24;20021;-87
2024/01/13 01:05:35;;;;;;;5.00;3.22;;;;;;;;;;5911993;24;20021;-87
2024/01/13 01:08:04;;;;;;;5.07;3.47;;;;;;;;;;5998655;23;20023;-87
2024/01/13 01:10:30;;;;;;;3.97;2.95;;;;;;;;;;6020081;23;20031;-87
2024/01/13 01:12:57;;;;;;;6.28;2.92;;;;;;;;;;6176097;23;20496;-87
2024/01/13 01:15:24;;;;;;;4.40;2.67;;;;;;;;;;6174140;23;20016;-87
2024/01/13 01:17:53;;;;;;;3.47;2.80;;;;;;;;;;6184583;23;20481;-87
2024/01/13 01:20:20;;;;;;;4.68;3.08;;;;;;;;;;6205389;23;20550;-87
2024/01/13 01:22:48;;;;;;;5.05;2.95;;;;;;;;;;6177910;23;20670;-88
2024/01/13 01:25:15;;;;;;;4.95;2.67;;;;;;;;;;6179287;23;20111;-87
2024/01/13 01:27:44;;;;;;;4.40;2.88;;;;;;;;;;6178759;23;20044;-87
2024/01/13 01:30:12;;;;;;;4.72;2.65;;;;;;;;;;6175227;23;20096;-87
2024/01/13 01:32:40;;;;;;;4.85;2.97;;;;;;;;;;6201392;23;20023;-87
2024/01/13 01:35:07;;;;;;;4.97;2.97;;;;;;;;;;6152708;23;20444;-87
2024/01/13 01:37:33;;;;;;;7.28;2.60;;;;;;;;;;6172269;23;20326;-87
2024/01/13 01:40:01;;;;;;;4.65;2.60;;;;;;;;;;6149156;23;20550;-87
2024/01/13 01:42:31;;;;;;;5.85;2.65;;;;;;;;;;6173864;23;20712;-87
2024/01/13 01:44:58;;;;;;;5.90;2.75;;;;;;;;;;6175590;23;20031;-87
2024/01/13 01:47:26;;;;;;;6.20;3.38;;;;;;;;;;6148627;23;20023;-87
2024/01/13 01:49:54;;;;;;;3.63;2.35;;;;;;;;;;6172385;23;20409;-87
2024/01/13 01:52:21;;;;;;;3.63;2.42;;;;;;;;;;6174335;23;20017;-87
2024/01/13 01:54:48;;;;;;;3.75;2.35;;;;;;;;;;6171041;23;20028;-87
2024/01/13 01:57:17;;;;;;;2.72;2.10;;;;;;;;;;6174557;23;20511;-88
2024/01/13 01:59:46;;;;;;;4.60;2.00;;;;;;;;;;6171393;23;20024;-87
2024/01/13 02:02:13;;;;;;;3.20;1.98;;;;;;;;;;6172612;23;20020;-87
2024/01/13 02:04:40;;;;;;;2.97;1.85;;;;;;;;;;6171385;23;20024;-87
2024/01/13 02:07:07;;;;;;;2.35;1.90;;;;;;;;;;6149662;23;20027;-87
2024/01/13 02:09:34;;;;;;;2.72;1.80;;;;;;;;;;6171411;23;20024;-87
2024/01/13 02:12:03;;;;;;;3.58;2.00;;;;;;;;;;6174140;23;20013;-87
2024/01/13 02:14:32;;;;;;;4.50;1.92;;;;;;;;;;6148770;23;20032;-87
2024/01/13 02:17:00;;;;;;;;;;;;;;;;;;6150182;23;20091;-87
2024/01/13 02:19:36;;;;;;;2.83;1.87;;;;;;;;;;6173785;23;19951;-87
2024/01/13 02:22:04;;;;;;;3.05;1.80;;;;;;;;;;6149749;23;20021;-87
2024/01/13 02:24:32;;;;;;;2.03;1.55;;;;;;;;;;6147980;23;20059;-87
2024/01/13 02:27:00;;;;;;;4.07;1.90;;;;;;;;;;6148785;23;20818;-87
2024/01/13 02:29:28;;;;;;;2.72;1.75;;;;;;;;;;6168856;23;20077;-87
2024/01/13 02:31:55;;;;;;;3.30;1.40;;;;;;;;;;6177289;23;20090;-87
2024/01/13 02:34:22;;;;;;;2.33;1.67;;;;;;;;;;6204934;23;20020;-87
2024/01/13 02:36:49;;;;;;;3.42;1.85;;;;;;;;;;6179169;23;20024;-87
2024/01/13 02:39:16;;;;;;;3.83;1.85;;;;;;;;;;6179444;23;20012;-87
2024/01/13 02:41:43;;;;;;;3.10;1.73;;;;;;;;;;6227650;23;20436;-87
2024/01/13 02:44:10;;;;;;;3.90;1.85;;;;;;;;;;6180400;23;20428;-87
2024/01/13 02:46:40;;;;;;;2.67;1.90;;;;;;;;;;6202823;23;20131;-86
2024/01/13 02:49:08;;;;;;;4.50;2.15;;;;;;;;;;6204836;23;20012;-87
2024/01/13 02:51:35;;;;;;;3.58;2.17;;;;;;;;;;6176712;23;20024;-87
2024/01/13 02:54:02;;;;;;;3.53;2.00;;;;;;;;;;6180434;23;20448;-87
2024/01/13 02:56:31;;;;;;;5.70;1.95;;;;;;;;;;6203724;23;20031;-87
2024/01/13 02:58:58;;;;;;;3.03;2.17;;;;;;;;;;6206519;23;20063;-86
2024/01/13 03:01:25;;;;;;;5.38;2.42;;;;;;;;;;6181888;23;20019;-87
2024/01/13 03:03:54;;;;;;;4.70;1.85;;;;;;;;;;6202958;23;20016;-87
2024/01/13 03:06:22;;;;;;;7.05;2.40;;;;;;;;;;6180281;23;20408;-87
2024/01/13 03:08:50;;;;;;;4.20;2.22;;;;;;;;;;6179234;23;20024;-87
2024/01/13 03:11:18;;;;;;;;;;;;;;;;;;6182513;23;20314;-87
2024/01/13 03:13:45;;;;;;;3.75;1.83;;;;;;;;;;6179282;23;19920;-87
2024/01/13 03:16:14;;;;;;;3.70;2.25;;;;;;;;;;6205781;23;20070;-87
2024/01/13 03:18:42;;;;;;;6.07;2.08;;;;;;;;;;6178656;23;20099;-87
2024/01/13 03:21:12;;;;;;;4.63;2.58;;;;;;;;;;6178418;23;20115;-87
2024/01/13 03:23:41;;;;;;;3.83;2.55;;;;;;;;;;6203793;23;20123;-87
2024/01/13 03:26:08;;;;;;;;;;;;;;;;;;6205863;23;20024;-87
2024/01/13 03:28:35;;;;;;;6.47;2.20;;;;;;;;;;6201434;23;19919;-87
2024/01/13 03:31:01;;;;;;;5.43;2.53;;;;;;;;;;6178703;23;20035;-87
2024/01/13 03:33:29;;;;;;;3.53;2.25;;;;;;;;;;6205516;23;20754;-87
2024/01/13 03:35:58;;;;;;;5.20;2.17;;;;;;;;;;6182251;23;20428;-87
2024/01/13 03:38:25;;;;;;;;;;;;;;;;;;6181870;23;20317;-87
2024/01/13 03:40:53;;;;;;;6.60;3.00;;;;;;;;;;6203724;23;20850;-86
2024/01/13 03:43:20;;;;;;;4.93;3.08;;;;;;;;;;6180619;23;20020;-87
2024/01/13 03:45:48;;;;;;;7.45;3.42;;;;;;;;;;6178651;23;20046;-87
2024/01/13 03:48:15;;;;;;;5.07;3.08;;;;;;;;;;6182008;23;20318;-87
2024/01/13 03:50:44;;;;;;;4.70;3.20;;;;;;;;;;6179630;23;20024;-86
2024/01/13 03:53:11;;;;;;;7.47;3.15;;;;;;;;;;6206623;23;20155;-87
2024/01/13 03:55:39;;;;;;;7.57;3.10;;;;;;;;;;6178634;23;20070;-87
2024/01/13 03:58:06;;;;;;;4.60;3.15;;;;;;;;;;6179518;23;20047;-87
2024/01/13 04:00:34;;;;;;;5.82;3.40;;;;;;;;;;6178321;23;20128;-87
2024/01/13 04:03:01;;;;;;;5.35;3.17;;;;;;;;;;6180555;23;20508;-87
2024/01/13 04:05:29;;;;;;;5.25;3.10;;;;;;;;;;6204962;23;20016;-88
2024/01/13 04:07:56;;;;;;;8.82;3.22;;;;;;;;;;6205181;23;20015;-87
2024/01/13 04:10:23;;;;;;;6.55;3.35;;;;;;;;;;6204395;23;20020;-87
2024/01/13 04:12:51;;;;;;;5.05;2.88;;;;;;;;;;6178156;23;20015;-87
2024/01/13 04:15:19;;;;;;;6.65;2.80;;;;;;;;;;6180430;23;20062;-87
2024/01/13 04:17:47;;;;;;;5.30;3.63;;;;;;;;;;6176522;23;20441;-87
2024/01/13 04:20:14;;;;;;;7.10;3.38;;;;;;;;;;6179704;23;20428;-87
2024/01/13 04:22:42;;;;;;;6.28;4.00;;;;;;;;;;6178001;23;20016;-87
2024/01/13 04:25:09;;;;;;;5.60;3.33;;;;;;;;;;6179764;23;20020;-87
2024/01/13 04:27:38;;;;;;;6.07;3.80;;;;;;;;;;6178285;23;20013;-87
2024/01/13 04:30:05;;;;;;;9.32;3.38;;;;;;;;;;6203870;23;20031;-87
2024/01/13 04:32:33;;;;;;;5.40;2.75;;;;;;;;;;6178557;23;20046;-88
2024/01/13 04:35:00;;;;;;;4.88;2.70;;;;;;;;;;6179439;23;20020;-87
2024/01/13 04:37:29;;;;;;;5.18;3.05;;;;;;;;;;6182216;23;20016;-87
2024/01/13 04:39:56;;;;;;;;;;;;;;;;;;6179533;23;20074;-87
2024/01/13 04:42:24;;;;;;;4.30;2.58;;;;;;;;;;6180114;23;20279;-87
2024/01/13 04:44:50;;;;;;;8.52;3.47;;;;;;;;;;6178490;23;20034;-87
2024/01/13 04:47:17;;;;;;;5.18;2.63;;;;;;;;;;6204720;23;20698;-87
2024/01/13 04:49:44;;;;;;;7.18;3.10;;;;;;;;;;6177782;23;20102;-87
2024/01/13 04:52:12;;;;;;;7.55;2.90;;;;;;;;;;6178702;23;20016;-87
2024/01/13 04:54:40;;;;;;;5.47;3.00;;;;;;;;;;6175938;23;20119;-87
2024/01/13 04:57:07;;;;;;;6.03;3.00;;;;;;;;;;6179697;23;20110;-87
2024/01/13 04:59:34;;;;;;;5.72;2.67;;;;;;;;;;6179515;23;20042;-87
2024/01/13 05:02:01;;;;;;;5.07;2.92;;;;;;;;;;6205536;23;20070;-86
2024/01/13 05:04:30;;;;;;;5.80;2.58;;;;;;;;;;6178946;23;20020;-87
2024/01/13 05:06:59;;;;;;;5.63;2.55;;;;;;;;;;6179371;23;20020;-87
2024/01/13 05:09:26;;;;;;;;;;;;;;;;;;6178760;23;20035;-87
2024/01/13 05:11:53;;;;;;;5.50;3.08;;;;;;;;;;6177157;23;19920;-87
2024/01/13 05:14:20;;;;;;;6.30;2.78;;;;;;;;;;6180578;23;20016;-87
2024/01/13 05:16:48;;;;;;;4.88;2.83;;;;;;;;;;6177036;23;20016;-87
2024/01/13 05:19:14;;;;;;;5.57;2.80;;;;;;;;;;6179163;23;20442;-87
2024/01/13 05:22:00;;;;;;;5.82;2.80;;;;;;;;;;6207789;23;20066;-87
2024/01/13 05:24:27;;;;;;;5.60;2.30;;;;;;;;;;6179253;23;20020;-87
2024/01/13 05:26:55;;;;;;;6.07;2.53;;;;;;;;;;6176597;23;20020;-87
2024/01/13 05:29:22;;;;;;;;;;;;;;;;;;6179323;23;20024;-87
2024/01/13 05:31:53;;;;;;;5.97;2.50;;;;;;;;;;6177446;23;20396;-87
2024/01/13 05:34:20;;;;;;;4.72;2.65;;;;;;;;;;6179981;23;20069;-87
2024/01/13 05:36:50;;;;;;;6.28;3.05;;;;;;;;;;6177809;23;20023;-87
2024/01/13 05:39:17;;;;;;;7.60;2.35;;;;;;;;;;6179276;23;20428;-87
2024/01/13 05:41:46;;;;;;;6.03;2.60;;;;;;;;;;6175841;23;20015;-87
2024/01/13 05:44:13;;;;;;;3.58;2.40;;;;;;;;;;6205740;23;20020;-87
2024/01/13 05:46:41;;;;;;;3.97;2.40;;;;;;;;;;6203092;23;20027;-87
2024/01/13 05:49:08;;;;;;;6.10;2.80;;;;;;;;;;6179780;23;20023;-87
2024/01/13 05:51:36;;;;;;;4.85;2.40;;;;;;;;;;6201413;23;20028;-87
2024/01/13 05:54:04;;;;;;;4.38;2.40;;;;;;;;;;6179710;23;20024;-87
2024/01/13 05:56:32;;;;;;;3.92;2.25;;;;;;;;;;6202239;23;20763;-87
2024/01/13 05:59:00;;;;;;;;;;;;;;;;;;6203886;23;20031;-87
2024/01/13 06:01:27;;;;;;;3.20;2.30;;;;;;;;;;6178077;23;19911;-87
2024/01/13 06:03:54;;;;;;;6.53;2.83;;;;;;;;;;6201554;23;20020;-86
2024/01/13 06:06:21;;;;;;;6.15;2.22;;;;;;;;;;6180550;23;20020;-86
2024/01/13 06:08:49;;;;;;;3.83;2.38;;;;;;;;;;6176696;23;20016;-87
2024/01/13 06:11:16;;;;;;;4.20;2.72;;;;;;;;;;6204600;23;20016;-87
2024/01/13 06:13:43;;;;;;;5.32;2.25;;;;;;;;;;6175879;23;20024;-87
2024/01/13 06:16:10;;;;;;;3.90;2.35;;;;;;;;;;6205194;23;20070;-87
2024/01/13 06:18:39;;;;;;;5.18;2.30;;;;;;;;;;6201915;23;20016;-87
2024/01/13 06:21:06;;;;;;;2.95;2.30;;;;;;;;;;6201756;23;20860;-87
2024/01/13 06:23:35;;;;;;;3.58;2.28;;;;;;;;;;6176664;23;20069;-87
2024/01/13 06:26:02;;;;;;;;;;;;;;;;;;6179349;23;20447;-87
2024/01/13 06:28:28;;;;;;;5.93;2.20;;;;;;;;;;6174965;23;19949;-87
2024/01/13 06:30:56;;;;;;;3.90;1.88;;;;;;;;;;6173279;23;20717;-87
2024/01/13 06:33:24;;;;;;;4.05;2.60;;;;;;;;;;6177548;23;20021;-87
2024/01/13 06:35:51;;;;;;;3.00;1.93;;;;;;;;;;6173358;23;20130;-86
2024/01/13 06:38:18;;;;;;;3.53;1.70;;;;;;;;;;6153438;23;20094;-87
2024/01/13 06:40:47;;;;;;;3.08;1.73;;;;;;;;;;6173373;23;20013;-87
2024/01/13 06:43:14;;;;;;;;;;;;;;;;;;6176797;23;20322;-87
2024/01/13 06:45:42;;;;;;;2.40;1.90;;;;;;;;;;6174783;23;19915;-87
2024/01/13 06:48:10;;;;;;;3.22;1.67;;;;;;;;;;6176835;23;20020;-86
2024/01/13 06:50:37;;;;;;;4.03;1.73;;;;;;;;;;6149913;23;20013;-87
2024/01/13 06:53:05;;;;;;;4.32;2.17;;;;;;;;;;6152299;23;20059;-86
2024/01/13 06:55:32;;;;;;;3.72;1.85;;;;;;;;;;6150827;23;20449;-87
2024/01/13 06:58:03;;;;;;;5.18;1.67;;;;;;;;;;6175251;23;20024;-87
2024/01/13 07:00:31;;;;;;;;;;;;;;;;;;6152108;23;20052;-87
2024/01/13 07:03:00;;;;;;;3.47;1.77;;;;;;;;;;6175445;23;19916;-87
2024/01/13 07:05:27;;;;;;;4.90;2.08;;;;;;;;;;6151643;23;20036;-87
2024/01/13 07:07:55;;;;;;;5.38;1.83;;;;;;;;;;6149797;23;20008;-87
2024/01/13 07:10:23;;;;;;;6.03;1.90;;;;;;;;;;6175353;23;20013;-87
2024/01/13 07:12:50;;;;;;;4.60;1.70;;;;;;;;;;6149241;23;20023;-87
2024/01/13 07:15:17;;;;;;;2.70;1.73;;;;;;;;;;6151725;23;20121;-87
2024/01/13 07:17:46;;;;;;;6.97;2.53;;;;;;;;;;6149422;23;20024;-87
2024/01/13 07:20:13;;;;;;;;;;;;;;;;;;6176100;23;20016;-87
2024/01/13 07:22:41;;;;;;;2.17;1.48;;;;;;;;;;6171855;23;20613;-87
2024/01/13 07:25:08;;;;;;;3.95;1.90;;;;;;;;;;6151033;23;20353;-87
2024/01/13 07:27:35;;;;;;;2.92;1.83;;;;;;;;;;6147013;23;20023;-87
2024/01/13 07:30:04;;;;;;;3.08;1.85;;;;;;;;;;6178182;23;20028;-86
2024/01/13 07:32:32;;;;;;;7.63;2.47;;;;;;;;;;6203645;23;20023;-88
2024/01/13 07:35:00;;;;;;;4.78;2.30;;;;;;;;;;6205226;23;20357;-87
2024/01/13 07:37:29;;;;;;;3.67;2.33;;;;;;;;;;6181268;23;20091;-87
2024/01/13 07:39:56;;;;;;;3.42;2.30;;;;;;;;;;6179692;23;20018;-87
2024/01/13 07:42:25;;;;;;;2.57;1.70;;;;;;;;;;6202656;23;20070;-87
2024/01/13 07:44:52;;;;;;;3.25;2.00;;;;;;;;;;6178517;23;20810;-87
2024/01/13 07:47:21;;;;;;;4.30;2.20;;;;;;;;;;6180098;23;20086;-87
2024/01/13 07:49:49;;;;;;;;;;;;;;;;;;6178238;23;20020;-87
2024/01/13 07:52:16;;;;;;;4.30;1.98;;;;;;;;;;6181783;23;19919;-87
2024/01/13 07:54:43;;;;;;;3.83;2.38;;;;;;;;;;6176497;23;20381;-87
2024/01/13 07:57:12;;;;;;;3.95;2.20;;;;;;;;;;6177997;23;20011;-87
2024/01/13 07:59:40;;;;;;;4.25;2.22;;;;;;;;;;6202661;23;20396;-87
2024/01/13 08:02:07;;;;;;;3.85;2.13;;;;;;;;;;6180295;23;20069;-87
2024/01/13 08:04:36;;;;;;;4.55;2.22;;;;;;;;;;6178128;23;20074;-87
2024/01/13 08:07:05;;;;;;;5.22;2.50;;;;;;;;;;6179789;23;20020;-87
2024/01/13 08:09:33;;;;;;;5.35;2.20;;;;;;;;;;6203847;23;20756;-87
2024/01/13 08:12:01;;;;;;;5.05;2.67;;;;;;;;;;6205120;23;20427;-87
2024/01/13 08:14:31;;;;;;;4.63;2.40;;;;;;;;;;6181244;23;20055;-88
2024/01/13 08:16:58;;;;;;;5.50;2.40;;;;;;;;;;6180288;22;20015;-89
2024/01/13 08:19:26;;;;;;;5.70;1.98;;;;;;;;;;6179297;23;20034;-88
2024/01/13 08:21:57;;;;;;;4.32;2.30;;;;;;;;;;6176592;23;20024;-89
2024/01/13 08:24:24;;;;;;;4.30;2.55;;;;;;;;;;6177758;23;20024;-89
2024/01/13 08:26:54;;;;;;;3.95;2.30;;;;;;;;;;6175798;23;20016;-88
2024/01/13 08:29:21;;;;;;;7.88;2.65;;;;;;;;;;6178040;23;20030;-88
2024/01/13 08:31:49;;;;;;;8.05;2.50;;;;;;;;;;6164848;23;20020;-88
2024/01/13 08:34:18;;;;;;;7.13;3.33;;;;;;;;;;6205172;23;20047;-88
2024/01/13 08:36:45;;;;;;;5.25;2.92;;;;;;;;;;6177317;23;20052;-88
2024/01/13 08:39:14;;;;;;;10.27;3.58;;;;;;;;;;6181032;23;20012;-88
2024/01/13 08:41:42;;;;;;;9.80;4.03;;;;;;;;;;6199900;23;20012;-88
2024/01/13 08:44:09;;;;;;;11.32;5.28;;;;;;;;;;6179919;23;20024;-88
2024/01/13 08:46:36;;;;;;;11.18;5.40;;;;;;;;;;6202007;23;20024;-89
2024/01/13 08:49:04;;;;;;;11.85;5.57;;;;;;;;;;6205244;23;20053;-89
2024/01/13 08:51:33;;;;;;;13.93;4.38;;;;;;;;;;6202328;23;20524;-88
2024/01/13 08:54:00;;;;;;;10.25;4.80;;;;;;;;;;6181493;23;20019;-88
2024/01/13 08:56:28;;;;;;;13.50;6.18;;;;;;;;;;6180516;23;20020;-88
2024/01/13 08:58:55;;;;;;;14.20;6.67;;;;;;;;;;6177941;23;20016;-88
2024/01/13 09:01:24;;;;;;;15.48;6.80;;;;;;;;;;6204871;23;20265;-88
2024/01/13 09:03:51;;;;;;;;;;;;;;;;;;6204117;23;20028;-87
2024/01/13 09:06:20;;;;;;;15.52;7.10;;;;;;;;;;6180603;23;19926;-87
2024/01/13 09:08:47;;;;;;;20.83;8.30;;;;;;;;;;6179320;23;20012;-88
2024/01/13 09:11:14;;;;;;;18.63;8.52;;;;;;;;;;6201914;23;20020;-88
2024/01/13 09:13:43;;;;;;;22.98;9.63;;;;;;;;;;6200305;23;20059;-88
2024/01/13 09:16:11;;;;;;;;;;;;;;;;;;6179912;23;20016;-88
2024/01/13 09:18:38;;;;;;;28.65;10.18;;;;;;;;;;6177515;23;19915;-88
2024/01/13 09:21:08;;;;;;;31.73;11.23;;;;;;;;;;6205323;23;20020;-88
2024/01/13 09:23:36;;;;;;;29.42;11.75;;;;;;;;;;6201853;23;20016;-88
2024/01/13 09:26:03;;;;;;;38.15;13.05;;;;;;;;;;6181356;23;20027;-88
2024/01/13 09:28:31;;;;;;;34.95;13.52;;;;;;;;;;6179865;23;20023;-88
2024/01/13 09:30:58;;;;;;;29.15;13.07;;;;;;;;;;6180481;23;20020;-88
2024/01/13 09:33:27;;;;;;;35.17;14.60;;;;;;;;;;6206728;23;20027;-88
2024/01/13 09:35:55;;;;;;;45.40;16.38;;;;;;;;;;6176825;23;20016;-88
2024/01/13 09:38:23;;;;;;;40.75;16.58;;;;;;;;;;6180668;23;20438;-88
2024/01/13 09:40:51;;;;;;;42.40;16.05;;;;;;;;;;6178648;23;20568;-88
2024/01/13 09:43:23;;;;;;;43.85;16.83;;;;;;;;;;6179338;23;20016;-88
2024/01/13 09:45:50;;;;;;;43.63;17.42;;;;;;;;;;6202975;23;20593;-88
2024/01/13 09:48:19;;;;;;;44.30;17.77;;;;;;;;;;6181083;23;20413;-88
2024/01/13 09:50:47;;;;;;;52.75;19.00;;;;;;;;;;6177721;23;20151;-87
2024/01/13 09:53:18;;;;;;;49.40;18.73;;;;;;;;;;6205427;23;20016;-87
2024/01/13 09:55:45;;;;;;;44.50;18.10;;;;;;;;;;6203423;23;20012;-87
2024/01/13 09:58:12;;;;;;;45.47;16.92;;;;;;;;;;6206129;23;20524;-87
2024/01/13 10:00:39;;;;;;;52.28;19.27;;;;;;;;;;6202508;23;20020;-87
2024/01/13 10:03:07;;;;;;;50.65;19.30;;;;;;;;;;6177802;23;20016;-87
2024/01/13 10:05:35;;;;;;;47.03;19.20;;;;;;;;;;6203685;23;20020;-88
2024/01/13 10:08:04;;;;;;;51.50;19.13;;;;;;;;;;6183369;23;20091;-88
2024/01/13 10:10:35;;;;;;;52.83;19.10;;;;;;;;;;6178182;23;20139;-87
2024/01/13 10:13:02;;;;;;;47.78;19.83;;;;;;;;;;6207101;23;20012;-88
2024/01/13 10:15:29;;;;;;;54.30;20.85;;;;;;;;;;6208239;23;20039;-88
2024/01/13 10:17:57;;;;;;;54.13;20.83;;;;;;;;;;6205060;23;20022;-87
2024/01/13 10:20:23;;;;;;;55.50;20.95;;;;;;;;;;6200776;23;20016;-88
2024/01/13 10:22:50;;;;;;;52.47;21.90;;;;;;;;;;6150053;23;20059;-88
2024/01/13 10:25:17;;;;;;;53.85;21.27;;;;;;;;;;6150980;23;20023;-87
2024/01/13 10:27:48;;;;;;;53.15;22.08;;;;;;;;;;6125450;23;20017;-87
2024/01/13 10:30:15;;;;;;;56.28;21.65;;;;;;;;;;6126318;23;20458;-88
2024/01/13 10:32:42;;;;;;;54.92;22.15;;;;;;;;;;6125485;23;20031;-88
2024/01/13 10:35:33;;;;;;;;;;;;;;;;;;;;;
2024/01/13 10:38:09;;;;;;;49.15;19.02;;;;;;;;;;6211705;23;20028;-89
2024/01/13 10:40:46;;;;;;;47.90;21.00;;;;;;;;;;6154167;23;20058;-91
2024/01/13 10:43:22;;;;;;;49.67;19.92;;;;;;;;;;6131642;23;20013;-90
2024/01/13 10:45:53;;;;;;;48.65;20.02;;;;;;;;;;6135411;23;20381;-93
2024/01/13 10:48:51;;;;;;;52.97;21.42;;;;;;;;;;6162599;23;20072;-93
2024/01/13 10:51:37;;;;;;;50.53;20.92;;;;;;;;;;6175670;23;20051;-87
2024/01/13 10:54:06;;;;;;;46.75;19.95;;;;;;;;;;6206243;23;20034;-86
2024/01/13 10:56:35;;;;;;;48.97;21.02;;;;;;;;;;6156221;23;20027;-86
2024/01/13 10:59:04;;;;;;;47.97;20.02;;;;;;;;;;6183071;23;20043;-87
2024/01/13 11:01:34;;;;;;;43.45;19.88;;;;;;;;;;6182851;23;20013;-87
2024/01/13 11:04:01;;;;;;;52.72;20.83;;;;;;;;;;6182122;23;20055;-86
2024/01/13 11:06:28;;;;;;;43.30;20.05;;;;;;;;;;6158650;23;20518;-87
2024/01/13 11:08:55;;;;;;;47.22;20.92;;;;;;;;;;6180278;23;20023;-87
2024/01/13 11:11:25;;;;;;;48.88;21.15;;;;;;;;;;6181817;23;20024;-87
2024/01/13 11:14:04;;;;;;;42.47;19.60;;;;;;;;;;6155698;23;20414;-87
2024/01/13 11:16:36;;;;;;;46.60;20.17;;;;;;;;;;6207116;23;20012;-87
2024/01/13 11:19:05;;;;;;;42.13;19.88;;;;;;;;;;6183728;23;20039;-87
2024/01/13 11:21:33;;;;;;;40.72;18.55;;;;;;;;;;6155652;23;20405;-87
2024/01/13 11:24:13;;;;;;;45.85;19.52;;;;;;;;;;6208071;23;20472;-87
2024/01/13 11:26:43;;;;;;;39.20;18.83;;;;;;;;;;6154398;23;20684;-87
2024/01/13 11:29:21;;;;;;;44.83;19.35;;;;;;;;;;6182457;23;20451;-87
2024/01/13 11:31:47;;;;;;;41.08;19.60;;;;;;;;;;6207545;23;20035;-87
2024/01/13 11:34:20;;;;;;;37.35;18.88;;;;;;;;;;6211238;23;20016;-87
2024/01/13 11:36:50;;;;;;;40.85;18.58;;;;;;;;;;6157421;23;20020;-87
2024/01/13 11:39:18;;;;;;;44.60;20.08;;;;;;;;;;6208963;23;20595;-87
2024/01/13 11:41:47;;;;;;;45.22;19.58;;;;;;;;;;6179829;23;20023;-87
2024/01/13 11:44:26;;;;;;;47.88;19.92;;;;;;;;;;6185095;23;20315;-87
2024/01/13 11:47:08;;;;;;;41.63;20.02;;;;;;;;;;6182486;23;20016;-86
2024/01/13 11:49:41;;;;;;;43.90;18.27;;;;;;;;;;6209328;23;20023;-86
2024/01/13 11:52:13;;;;;;;44.50;20.58;;;;;;;;;;6158372;23;20027;-87
2024/01/13 11:54:41;;;;;;;44.38;19.58;;;;;;;;;;6185856;23;20031;-87
2024/01/13 11:57:12;;;;;;;39.65;19.38;;;;;;;;;;6182530;23;20174;-87
2024/01/13 11:59:40;;;;;;;39.10;18.05;;;;;;;;;;6181763;23;20031;-87
2024/01/13 12:06:04;;;;;;;42.78;18.02;;;;;;;;;;6143838;23;20022;-86
2024/01/13 12:09:16;;;;;;;;;;;;;;;;;;;;;
2024/01/13 12:12:40;;;;;;;40.33;17.83;;;;;;;;;;5948067;23;20459;-87
2024/01/13 12:16:38;;;;;;;35.83;17.25;;;;;;;;;;5894786;24;20025;-87
2024/01/13 12:19:39;;;;;;;;;;;;;;;;;;;;;
2024/01/13 12:22:52;;;;;;;34.17;15.45;;;;;;;;;;5922999;24;20020;-87
2024/01/13 12:33:46;;;;;;;32.70;14.25;;;;;;;;;;5815622;24;20551;-87
2024/01/13 12:37:04;;;;;;;;;;;;;;;;;;;;;
2024/01/13 13:11:27;;;;;;;;;;;;;;;;;;;;;
2024/01/13 13:32:31;;;;;;;18.60;8.18;;;;;;;;;;5837250;24;20072;-86
2024/01/13 13:41:58;;;;;;;;;;;;;;;;;;;;;
2024/01/13 13:51:59;;;;;;;;;;;;;;;;;;;;;
2024/01/13 13:55:08;;;;;;;18.08;8.05;;;;;;;;;;5814829;24;20131;-86
2024/01/13 14:04:30;;;;;;;;;;;;;;;;;;;;;
2024/01/13 14:18:33;;;;;;;;;;;;;;;;;;;;;
2024/01/13 18:16:05;;;;;;;11.38;2.53;;;;;;;;;;6119103;22;4119466;-84
2024/01/13 18:18:32;;;;;;;12.07;2.83;;;;;;;;;;6194254;23;20012;-84
2024/01/13 18:21:00;;;;;;;14.32;2.83;;;;;;;;;;6210607;23;20048;-84
2024/01/13 18:23:27;;;;;;;11.35;2.28;;;;;;;;;;6163526;23;20019;-84
2024/01/13 18:29:01;;;;;;;11.88;3.60;;;;;;;;;;6167363;23;20485;-84
2024/01/13 18:31:31;;;;;;;10.45;2.47;;;;;;;;;;6121907;23;20514;-84
2024/01/13 18:34:10;;;;;;;10.20;3.03;;;;;;;;;;6070011;23;20041;-84
2024/01/13 18:36:59;;;;;;;;;;;;;;;;;;;;;
2024/01/13 18:39:35;;;;;;;14.10;3.28;;;;;;;;;;6119370;23;20064;-84
2024/01/13 18:42:06;;;;;;;14.10;2.40;;;;;;;;;;6118089;23;20348;-85
2024/01/13 18:44:38;;;;;;;7.32;2.05;;;;;;;;;;6068781;23;20057;-84
2024/01/13 18:47:06;;;;;;;3.75;1.85;;;;;;;;;;6116409;23;20013;-84
2024/01/13 18:49:46;;;;;;;7.57;2.50;;;;;;;;;;6118135;23;20645;-84
2024/01/13 18:52:14;;;;;;;13.70;2.92;;;;;;;;;;6118568;23;20390;-84
2024/01/13 18:54:45;;;;;;;14.23;2.13;;;;;;;;;;6066989;23;20048;-84
2024/01/13 18:57:39;;;;;;;12.50;1.88;;;;;;;;;;6094733;23;20017;-83
2024/01/13 19:00:10;;;;;;;9.25;1.95;;;;;;;;;;6154938;23;20479;-84
2024/01/13 19:02:54;;;;;;;;;;;;;;;;;;;;;
2024/01/13 19:05:32;;;;;;;9.70;2.00;;;;;;;;;;6184419;23;20051;-84
2024/01/13 19:08:17;;;;;;;;;;;;;;;;;;;;;
2024/01/13 19:11:02;;;;;;;7.00;1.42;;;;;;;;;;6203164;23;20017;-84
2024/01/13 19:13:53;;;;;;;12.90;2.13;;;;;;;;;;6202015;23;20020;-84
2024/01/13 19:34:43;;;;;;;11.13;1.73;;;;;;;;;;6013910;23;20057;-84
2024/01/13 19:47:56;;;;;;;9.23;2.60;;;;;;;;;;5807593;24;20045;-84
2024/01/13 19:51:19;;;;;;;6.25;2.00;;;;;;;;;;5827168;24;20567;-84
2024/01/13 19:58:10;;;;;;;10.18;1.77;;;;;;;;;;5754789;24;20048;-84
2024/01/13 20:23:20;;;;;;;8.43;1.70;;;;;;;;;;4889465;22;31147713;-84
2024/01/13 20:26:20;;;;;;;;;;;;;;;;;;;;;
2024/01/13 20:29:32;;;;;;;6.47;1.60;;;;;;;;;;6166097;23;20035;-84
2024/01/13 20:32:26;;;;;;;5.85;1.77;;;;;;;;;;6129526;23;20021;-84
2024/01/13 20:35:39;;;;;;;5.43;1.83;;;;;;;;;;6164655;23;20353;-84
2024/01/13 20:38:32;;;;;;;6.07;1.70;;;;;;;;;;6161697;23;20081;-84
2024/01/13 20:44:36;;;;;;;6.25;1.45;;;;;;;;;;6186590;23;20312;-84
2024/01/13 20:47:44;;;;;;;7.28;1.70;;;;;;;;;;6181109;23;20063;-84
2024/01/13 20:50:18;;;;;;;5.97;1.77;;;;;;;;;;6093576;23;20044;-84
2024/01/13 20:53:31;;;;;;;;;;;;;;;;;;;;;
2024/01/13 20:56:49;;;;;;;7.13;2.03;;;;;;;;;;6138585;23;20089;-84
2024/01/13 20:59:23;;;;;;;7.80;1.95;;;;;;;;;;6178780;23;20024;-84
2024/01/13 21:01:53;;;;;;;10.15;3.30;;;;;;;;;;6127551;23;21065;-84
2024/01/13 21:04:49;;;;;;;5.40;2.00;;;;;;;;;;6109744;23;20017;-84
2024/01/13 21:07:37;;;;;;;7.32;1.85;;;;;;;;;;6129996;23;20547;-84
2024/01/13 21:13:37;;;;;;;3.67;1.35;;;;;;;;;;6035360;23;20071;-84
2024/01/13 21:16:07;;;;;;;7.88;1.55;;;;;;;;;;6032140;23;20023;-84
2024/01/13 21:18:52;;;;;;;1.63;1.00;;;;;;;;;;6027060;23;20471;-84
2024/01/13 21:21:54;;;;;;;6.10;1.30;;;;;;;;;;5997680;23;20023;-84
2024/01/13 21:24:48;;;;;;;6.32;1.50;;;;;;;;;;6006944;23;20500;-84
2024/01/13 21:27:24;;;;;;;9.57;1.15;;;;;;;;;;6057640;23;20048;-84
2024/01/13 21:30:28;;;;;;;4.18;1.60;;;;;;;;;;6055649;23;20022;-83
2024/01/13 21:33:07;;;;;;;;;;;;;;;;;;;;;
2024/01/13 21:36:02;;;;;;;8.32;1.60;;;;;;;;;;6065944;23;20150;-84
2024/01/13 21:39:16;;;;;;;6.05;1.33;;;;;;;;;;6029558;23;20022;-84
2024/01/13 21:41:56;;;;;;;8.82;1.90;;;;;;;;;;5980881;23;20021;-84
2024/01/13 21:44:36;;;;;;;7.22;1.60;;;;;;;;;;6030140;23;20456;-83
2024/01/13 21:47:33;;;;;;;5.40;0.98;;;;;;;;;;6007747;23;20061;-84
2024/01/13 21:50:20;;;;;;;6.57;1.15;;;;;;;;;;6008935;23;20025;-83
2024/01/13 21:52:59;;;;;;;10.05;1.67;;;;;;;;;;6067248;23;20028;-84
2024/01/13 21:55:30;;;;;;;7.00;0.93;;;;;;;;;;6068703;23;20394;-84
2024/01/13 21:58:27;;;;;;;5.13;1.25;;;;;;;;;;6093640;23;20025;-83
2024/01/13 22:01:18;;;;;;;7.38;1.50;;;;;;;;;;6084341;23;20453;-84
2024/01/13 22:03:54;;;;;;;4.47;1.10;;;;;;;;;;6038027;23;20049;-83
2024/01/13 22:06:59;;;;;;;6.40;1.45;;;;;;;;;;6037546;23;20019;-83
2024/01/13 22:09:43;;;;;;;4.00;1.08;;;;;;;;;;6091285;23;20104;-83
2024/01/13 22:12:26;;;;;;;5.45;1.13;;;;;;;;;;6063056;23;20072;-84
2024/01/13 22:15:22;;;;;;;5.93;1.08;;;;;;;;;;6087436;23;20900;-84
2024/01/13 22:17:52;;;;;;;6.97;1.27;;;;;;;;;;6086147;23;20020;-84
2024/01/13 22:20:25;;;;;;;5.53;1.00;;;;;;;;;;6113278;23;20092;-83
2024/01/13 22:23:24;;;;;;;4.65;1.20;;;;;;;;;;6095381;23;20026;-84
2024/01/13 22:26:06;;;;;;;5.55;0.85;;;;;;;;;;6094227;23;20143;-83
2024/01/13 22:28:56;;;;;;;;;;;;;;;;;;;;;
2024/01/13 22:31:41;;;;;;;4.88;0.85;;;;;;;;;;6116122;23;20017;-84
2024/01/13 22:34:44;;;;;;;4.55;1.52;;;;;;;;;;6090352;23;20188;-84
2024/01/13 22:37:22;;;;;;;6.97;0.93;;;;;;;;;;6173315;23;20035;-84
2024/01/13 22:39:55;;;;;;;6.82;1.77;;;;;;;;;;6155025;23;20024;-83
2024/01/13 22:42:26;;;;;;;3.25;0.90;;;;;;;;;;6179459;23;20024;-84
2024/01/13 22:44:59;;;;;;;6.68;1.50;;;;;;;;;;6194779;23;20519;-84
2024/01/13 22:47:50;;;;;;;8.32;1.15;;;;;;;;;;6180614;23;20048;-84
2024/01/13 22:50:20;;;;;;;10.93;1.23;;;;;;;;;;6155694;23;20433;-83
2024/01/13 22:53:20;;;;;;;5.13;1.30;;;;;;;;;;6201155;23;20067;-84
2024/01/13 22:56:37;;;;;;;4.78;1.25;;;;;;;;;;6201783;23;20028;-84
2024/01/13 22:59:17;;;;;;;4.20;1.15;;;;;;;;;;6172256;23;20078;-87